sensor_id;sensor_type;location;lat;lon;timestamp;temperature;humidity
14682;DHT22;7429;52.498;13.480;2023-02-01T00:01:34;5.00;99.90
14682;DHT22;7429;52.498;13.480;2023-02-01T00:04:39;5.00;99.90
14682;DHT22;7429;52.498;13.480;2023-02-01T00:07:46;5.00;99.90
14682;DHT22;7429;52.498;13.480;2023-02-01T00:10:58;5.00;99.90
14682;DHT22;7429;52.498;13.480;2023-02-01T00:14:02;5.00;99.90
14682;DHT22;7429;52.498;13.480;2023-02-01T00:17:06;4.90;99.90
14682;DHT22;7429;52.498;13.480;2023-02-01T00:20:11;4.90;99.90
14682;DHT22;7429;52.498;13.480;2023-02-01T00:23:14;4.90;99.90
14682;DHT22;7429;52.498;13.480;2023-02-01T00:26:20;4.90;99.90
14682;DHT22;7429;52.498;13.480;2023-02-01T00:29:26;4.90;99.90
14682;DHT22;7429;52.498;13.480;2023-02-01T00:32:29;4.90;99.90
14682;DHT22;7429;52.498;13.480;2023-02-01T00:35:35;4.90;99.90
14682;DHT22;7429;52.498;13.480;2023-02-01T00:38:41;5.00;99.90
14682;DHT22;7429;52.498;13.480;2023-02-01T00:41:44;5.00;99.90
14682;DHT22;7429;52.498;13.480;2023-02-01T00:44:47;5.00;99.90
14682;DHT22;7429;52.498;13.480;2023-02-01T00:47:50;4.90;99.90
14682;DHT22;7429;52.498;13.480;2023-02-01T00:51:00;4.90;99.90
14682;DHT22;7429;52.498;13.480;2023-02-01T00:54:03;5.00;99.90
14682;DHT22;7429;52.498;13.480;2023-02-01T00:57:07;4.90;99.90
14682;DHT22;7429;52.498;13.480;2023-02-01T01:00:11;4.90;99.90
14682;DHT22;7429;52.498;13.480;2023-02-01T01:03:15;4.90;99.90
14682;DHT22;7429;52.498;13.480;2023-02-01T01:06:24;4.90;99.90
14682;DHT22;7429;52.498;13.480;2023-02-01T01:09:28;4.90;99.90
14682;DHT22;7429;52.498;13.480;2023-02-01T01:12:32;4.80;99.90
14682;DHT22;7429;52.498;13.480;2023-02-01T01:15:41;4.70;99.90
14682;DHT22;7429;52.498;13.480;2023-02-01T01:18:44;4.70;99.90
14682;DHT22;7429;52.498;13.480;2023-02-01T01:21:51;4.70;99.90
14682;DHT22;7429;52.498;13.480;2023-02-01T01:24:55;4.60;99.90
14682;DHT22;7429;52.498;13.480;2023-02-01T01:27:58;4.70;99.90
14682;DHT22;7429;52.498;13.480;2023-02-01T01:31:02;4.70;99.90
14682;DHT22;7429;52.498;13.480;2023-02-01T01:34:07;4.60;99.90
14682;DHT22;7429;52.498;13.480;2023-02-01T01:37:15;4.50;99.90
14682;DHT22;7429;52.498;13.480;2023-02-01T01:40:18;4.60;99.90
14682;DHT22;7429;52.498;13.480;2023-02-01T01:43:23;4.70;99.90
14682;DHT22;7429;52.498;13.480;2023-02-01T01:46:31;4.60;99.90
14682;DHT22;7429;52.498;13.480;2023-02-01T01:49:35;4.60;99.90
14682;DHT22;7429;52.498;13.480;2023-02-01T01:52:41;4.70;99.90
14682;DHT22;7429;52.498;13.480;2023-02-01T01:55:46;4.70;99.90
14682;DHT22;7429;52.498;13.480;2023-02-01T01:58:52;4.70;99.90
14682;DHT22;7429;52.498;13.480;2023-02-01T02:01:59;4.70;99.90
14682;DHT22;7429;52.498;13.480;2023-02-01T02:05:03;4.60;99.90
14682;DHT22;7429;52.498;13.480;2023-02-01T02:08:08;4.70;99.90
14682;DHT22;7429;52.498;13.480;2023-02-01T02:11:15;4.70;99.90
14682;DHT22;7429;52.498;13.480;2023-02-01T02:14:22;4.80;99.90
14682;DHT22;7429;52.498;13.480;2023-02-01T02:17:31;4.80;99.90
14682;DHT22;7429;52.498;13.480;2023-02-01T02:20:53;4.80;99.90
14682;DHT22;7429;52.498;13.480;2023-02-01T02:24:30;4.80;99.90
14682;DHT22;7429;52.498;13.480;2023-02-01T02:27:46;4.80;99.90
14682;DHT22;7429;52.498;13.480;2023-02-01T02:31:23;4.80;99.90
14682;DHT22;7429;52.498;13.480;2023-02-01T02:34:39;4.80;99.90
14682;DHT22;7429;52.498;13.480;2023-02-01T02:37:49;4.90;99.90
14682;DHT22;7429;52.498;13.480;2023-02-01T02:41:09;4.90;99.90
14682;DHT22;7429;52.498;13.480;2023-02-01T02:44:45;4.80;99.90
14682;DHT22;7429;52.498;13.480;2023-02-01T02:48:15;4.80;99.90
14682;DHT22;7429;52.498;13.480;2023-02-01T02:51:27;4.80;99.90
14682;DHT22;7429;52.498;13.480;2023-02-01T02:54:50;4.90;99.90
14682;DHT22;7429;52.498;13.480;2023-02-01T02:58:02;4.80;99.90
14682;DHT22;7429;52.498;13.480;2023-02-01T03:01:25;4.80;99.90
14682;DHT22;7429;52.498;13.480;2023-02-01T03:04:46;4.80;99.90
14682;DHT22;7429;52.498;13.480;2023-02-01T03:08:08;4.80;99.90
14682;DHT22;7429;52.498;13.480;2023-02-01T03:11:14;4.80;99.90
14682;DHT22;7429;52.498;13.480;2023-02-01T03:14:18;4.80;99.90
14682;DHT22;7429;52.498;13.480;2023-02-01T03:17:29;4.90;99.90
14682;DHT22;7429;52.498;13.480;2023-02-01T03:20:37;4.80;99.90
14682;DHT22;7429;52.498;13.480;2023-02-01T03:23:44;4.80;99.90
14682;DHT22;7429;52.498;13.480;2023-02-01T03:26:53;4.80;99.90
14682;DHT22;7429;52.498;13.480;2023-02-01T03:30:03;4.80;99.90
14682;DHT22;7429;52.498;13.480;2023-02-01T03:33:13;4.90;99.90
14682;DHT22;7429;52.498;13.480;2023-02-01T03:36:31;4.90;99.90
14682;DHT22;7429;52.498;13.480;2023-02-01T03:39:45;5.00;99.90
14682;DHT22;7429;52.498;13.480;2023-02-01T03:42:54;4.90;99.90
14682;DHT22;7429;52.498;13.480;2023-02-01T03:46:01;4.90;99.90
14682;DHT22;7429;52.498;13.480;2023-02-01T03:49:17;4.90;99.90
14682;DHT22;7429;52.498;13.480;2023-02-01T03:52:23;4.90;99.90
14682;DHT22;7429;52.498;13.480;2023-02-01T03:55:31;4.90;99.90
14682;DHT22;7429;52.498;13.480;2023-02-01T03:58:35;4.90;99.90
14682;DHT22;7429;52.498;13.480;2023-02-01T04:01:38;4.90;99.90
14682;DHT22;7429;52.498;13.480;2023-02-01T04:04:41;5.00;99.90
14682;DHT22;7429;52.498;13.480;2023-02-01T04:07:46;5.00;99.90
14682;DHT22;7429;52.498;13.480;2023-02-01T04:10:51;5.00;99.90
14682;DHT22;7429;52.498;13.480;2023-02-01T04:13:54;5.00;99.90
14682;DHT22;7429;52.498;13.480;2023-02-01T04:16:58;5.00;99.90
14682;DHT22;7429;52.498;13.480;2023-02-01T04:20:01;5.00;99.90
14682;DHT22;7429;52.498;13.480;2023-02-01T04:23:08;5.10;99.90
14682;DHT22;7429;52.498;13.480;2023-02-01T04:26:13;5.10;99.90
14682;DHT22;7429;52.498;13.480;2023-02-01T04:29:18;5.10;99.90
14682;DHT22;7429;52.498;13.480;2023-02-01T04:32:21;5.20;99.90
14682;DHT22;7429;52.498;13.480;2023-02-01T04:35:24;5.20;99.90
14682;DHT22;7429;52.498;13.480;2023-02-01T04:38:27;5.30;99.90
14682;DHT22;7429;52.498;13.480;2023-02-01T04:41:35;5.30;99.90
14682;DHT22;7429;52.498;13.480;2023-02-01T04:44:42;5.30;99.90
14682;DHT22;7429;52.498;13.480;2023-02-01T04:47:45;5.30;99.90
14682;DHT22;7429;52.498;13.480;2023-02-01T04:50:51;5.30;99.90
14682;DHT22;7429;52.498;13.480;2023-02-01T04:53:54;5.30;99.90
14682;DHT22;7429;52.498;13.480;2023-02-01T04:56:59;5.30;99.90
14682;DHT22;7429;52.498;13.480;2023-02-01T05:00:03;5.30;99.90
14682;DHT22;7429;52.498;13.480;2023-02-01T05:03:07;5.40;99.90
14682;DHT22;7429;52.498;13.480;2023-02-01T05:06:10;5.40;99.90
14682;DHT22;7429;52.498;13.480;2023-02-01T05:09:16;5.40;99.90
14682;DHT22;7429;52.498;13.480;2023-02-01T05:12:21;5.40;99.90
14682;DHT22;7429;52.498;13.480;2023-02-01T05:15:42;5.40;99.90
14682;DHT22;7429;52.498;13.480;2023-02-01T05:18:45;5.50;99.90
14682;DHT22;7429;52.498;13.480;2023-02-01T05:21:49;5.50;99.90
14682;DHT22;7429;52.498;13.480;2023-02-01T05:24:52;5.50;99.90
14682;DHT22;7429;52.498;13.480;2023-02-01T05:27:59;5.50;99.90
14682;DHT22;7429;52.498;13.480;2023-02-01T05:31:09;5.50;99.90
14682;DHT22;7429;52.498;13.480;2023-02-01T05:34:13;5.50;99.90
14682;DHT22;7429;52.498;13.480;2023-02-01T05:37:17;5.50;99.90
14682;DHT22;7429;52.498;13.480;2023-02-01T05:40:20;5.50;99.90
14682;DHT22;7429;52.498;13.480;2023-02-01T05:43:25;5.50;99.90
14682;DHT22;7429;52.498;13.480;2023-02-01T05:46:30;5.50;99.90
14682;DHT22;7429;52.498;13.480;2023-02-01T05:49:34;5.60;99.90
14682;DHT22;7429;52.498;13.480;2023-02-01T05:52:40;5.50;99.90
14682;DHT22;7429;52.498;13.480;2023-02-01T05:55:51;5.60;99.90
14682;DHT22;7429;52.498;13.480;2023-02-01T05:58:56;5.60;99.90
14682;DHT22;7429;52.498;13.480;2023-02-01T06:01:59;5.60;99.90
14682;DHT22;7429;52.498;13.480;2023-02-01T06:05:03;5.60;99.90
14682;DHT22;7429;52.498;13.480;2023-02-01T06:08:06;5.60;99.90
14682;DHT22;7429;52.498;13.480;2023-02-01T06:11:10;5.60;99.90
14682;DHT22;7429;52.498;13.480;2023-02-01T06:14:33;5.60;99.90
14682;DHT22;7429;52.498;13.480;2023-02-01T06:17:37;5.60;99.90
14682;DHT22;7429;52.498;13.480;2023-02-01T06:20:41;5.60;99.90
14682;DHT22;7429;52.498;13.480;2023-02-01T06:23:45;5.60;99.90
14682;DHT22;7429;52.498;13.480;2023-02-01T06:26:48;5.50;99.90
14682;DHT22;7429;52.498;13.480;2023-02-01T06:29:53;5.40;99.90
14682;DHT22;7429;52.498;13.480;2023-02-01T06:32:57;5.40;99.90
14682;DHT22;7429;52.498;13.480;2023-02-01T06:36:02;5.30;99.90
14682;DHT22;7429;52.498;13.480;2023-02-01T06:39:07;5.30;99.90
14682;DHT22;7429;52.498;13.480;2023-02-01T06:42:10;5.20;99.90
14682;DHT22;7429;52.498;13.480;2023-02-01T06:45:16;5.20;99.90
14682;DHT22;7429;52.498;13.480;2023-02-01T06:48:19;5.20;99.90
14682;DHT22;7429;52.498;13.480;2023-02-01T06:51:24;5.20;99.90
14682;DHT22;7429;52.498;13.480;2023-02-01T06:54:28;5.10;99.90
14682;DHT22;7429;52.498;13.480;2023-02-01T06:57:34;5.20;99.90
14682;DHT22;7429;52.498;13.480;2023-02-01T07:04:19;5.10;99.90
14682;DHT22;7429;52.498;13.480;2023-02-01T07:07:24;5.10;99.90
14682;DHT22;7429;52.498;13.480;2023-02-01T07:10:28;5.10;99.90
14682;DHT22;7429;52.498;13.480;2023-02-01T07:13:32;5.10;99.90
14682;DHT22;7429;52.498;13.480;2023-02-01T07:16:37;5.10;99.90
14682;DHT22;7429;52.498;13.480;2023-02-01T07:19:40;5.10;99.90
14682;DHT22;7429;52.498;13.480;2023-02-01T07:22:46;5.10;99.90
14682;DHT22;7429;52.498;13.480;2023-02-01T07:25:56;5.20;99.90
14682;DHT22;7429;52.498;13.480;2023-02-01T07:29:00;5.20;99.90
14682;DHT22;7429;52.498;13.480;2023-02-01T07:32:07;5.20;99.90
14682;DHT22;7429;52.498;13.480;2023-02-01T07:35:12;5.10;99.90
14682;DHT22;7429;52.498;13.480;2023-02-01T07:38:16;5.10;99.90
14682;DHT22;7429;52.498;13.480;2023-02-01T07:41:22;5.10;99.90
14682;DHT22;7429;52.498;13.480;2023-02-01T07:44:26;5.10;99.90
14682;DHT22;7429;52.498;13.480;2023-02-01T07:47:31;5.20;99.90
14682;DHT22;7429;52.498;13.480;2023-02-01T07:50:37;5.10;99.90
14682;DHT22;7429;52.498;13.480;2023-02-01T07:53:42;5.20;99.90
14682;DHT22;7429;52.498;13.480;2023-02-01T07:57:13;5.10;99.90
14682;DHT22;7429;52.498;13.480;2023-02-01T08:01:03;5.10;99.90
14682;DHT22;7429;52.498;13.480;2023-02-01T08:04:30;4.90;99.90
14682;DHT22;7429;52.498;13.480;2023-02-01T08:07:33;4.80;99.90
14682;DHT22;7429;52.498;13.480;2023-02-01T08:10:37;4.70;99.90
14682;DHT22;7429;52.498;13.480;2023-02-01T08:13:42;4.60;99.90
14682;DHT22;7429;52.498;13.480;2023-02-01T08:16:46;4.50;99.90
14682;DHT22;7429;52.498;13.480;2023-02-01T08:19:51;4.40;99.90
14682;DHT22;7429;52.498;13.480;2023-02-01T08:22:55;4.40;99.90
14682;DHT22;7429;52.498;13.480;2023-02-01T08:26:07;4.30;99.90
14682;DHT22;7429;52.498;13.480;2023-02-01T08:29:12;4.20;99.90
14682;DHT22;7429;52.498;13.480;2023-02-01T08:32:15;4.30;99.90
14682;DHT22;7429;52.498;13.480;2023-02-01T08:35:20;4.20;99.90
14682;DHT22;7429;52.498;13.480;2023-02-01T08:38:37;4.20;99.90
14682;DHT22;7429;52.498;13.480;2023-02-01T08:41:42;4.20;99.90
14682;DHT22;7429;52.498;13.480;2023-02-01T08:45:06;4.20;99.90
14682;DHT22;7429;52.498;13.480;2023-02-01T08:48:13;4.10;99.90
14682;DHT22;7429;52.498;13.480;2023-02-01T08:51:20;4.10;99.90
14682;DHT22;7429;52.498;13.480;2023-02-01T08:54:24;4.20;99.90
14682;DHT22;7429;52.498;13.480;2023-02-01T08:57:27;4.20;99.90
14682;DHT22;7429;52.498;13.480;2023-02-01T09:00:31;4.20;99.90
14682;DHT22;7429;52.498;13.480;2023-02-01T09:03:34;4.20;99.90
14682;DHT22;7429;52.498;13.480;2023-02-01T09:06:43;4.20;99.90
14682;DHT22;7429;52.498;13.480;2023-02-01T09:09:46;4.30;99.90
14682;DHT22;7429;52.498;13.480;2023-02-01T09:12:50;4.20;99.90
14682;DHT22;7429;52.498;13.480;2023-02-01T09:15:57;4.20;99.90
14682;DHT22;7429;52.498;13.480;2023-02-01T09:19:02;4.30;99.90
14682;DHT22;7429;52.498;13.480;2023-02-01T09:22:26;4.30;99.90
14682;DHT22;7429;52.498;13.480;2023-02-01T09:25:29;4.30;99.90
14682;DHT22;7429;52.498;13.480;2023-02-01T09:28:33;4.40;99.90
14682;DHT22;7429;52.498;13.480;2023-02-01T09:31:36;4.40;99.90
14682;DHT22;7429;52.498;13.480;2023-02-01T09:34:44;4.50;99.90
14682;DHT22;7429;52.498;13.480;2023-02-01T09:37:49;4.50;99.90
14682;DHT22;7429;52.498;13.480;2023-02-01T09:40:53;4.50;99.90
14682;DHT22;7429;52.498;13.480;2023-02-01T09:44:04;4.50;99.90
14682;DHT22;7429;52.498;13.480;2023-02-01T09:47:12;4.50;99.90
14682;DHT22;7429;52.498;13.480;2023-02-01T09:50:19;4.60;99.90
14682;DHT22;7429;52.498;13.480;2023-02-01T09:53:29;4.60;99.90
14682;DHT22;7429;52.498;13.480;2023-02-01T09:56:39;4.60;99.90
14682;DHT22;7429;52.498;13.480;2023-02-01T09:59:47;4.60;99.90
14682;DHT22;7429;52.498;13.480;2023-02-01T10:02:54;4.60;99.90
14682;DHT22;7429;52.498;13.480;2023-02-01T10:06:07;4.60;99.90
14682;DHT22;7429;52.498;13.480;2023-02-01T10:09:33;4.60;99.90
14682;DHT22;7429;52.498;13.480;2023-02-01T10:13:05;4.60;99.90
14682;DHT22;7429;52.498;13.480;2023-02-01T10:16:22;4.60;99.90
14682;DHT22;7429;52.498;13.480;2023-02-01T10:19:39;4.60;99.90
14682;DHT22;7429;52.498;13.480;2023-02-01T10:22:56;4.50;99.90
14682;DHT22;7429;52.498;13.480;2023-02-01T10:26:27;4.40;99.90
14682;DHT22;7429;52.498;13.480;2023-02-01T10:29:40;4.40;99.90
14682;DHT22;7429;52.498;13.480;2023-02-01T10:32:50;4.50;99.90
14682;DHT22;7429;52.498;13.480;2023-02-01T10:36:01;4.50;99.90
14682;DHT22;7429;52.498;13.480;2023-02-01T10:39:15;4.50;99.90
14682;DHT22;7429;52.498;13.480;2023-02-01T10:42:25;4.60;99.90
14682;DHT22;7429;52.498;13.480;2023-02-01T10:45:32;4.60;99.90
14682;DHT22;7429;52.498;13.480;2023-02-01T10:48:37;4.70;99.90
14682;DHT22;7429;52.498;13.480;2023-02-01T10:51:45;4.70;99.90
14682;DHT22;7429;52.498;13.480;2023-02-01T10:54:50;4.70;99.90
14682;DHT22;7429;52.498;13.480;2023-02-01T10:57:59;4.80;99.90
14682;DHT22;7429;52.498;13.480;2023-02-01T11:01:04;4.70;99.90
14682;DHT22;7429;52.498;13.480;2023-02-01T11:04:10;4.60;99.90
14682;DHT22;7429;52.498;13.480;2023-02-01T11:07:19;4.60;99.90
14682;DHT22;7429;52.498;13.480;2023-02-01T11:10:37;4.50;99.90
14682;DHT22;7429;52.498;13.480;2023-02-01T11:13:44;4.50;99.90
14682;DHT22;7429;52.498;13.480;2023-02-01T11:17:01;4.60;99.90
14682;DHT22;7429;52.498;13.480;2023-02-01T11:20:15;4.70;99.90
14682;DHT22;7429;52.498;13.480;2023-02-01T11:23:22;4.80;99.90
14682;DHT22;7429;52.498;13.480;2023-02-01T11:26:27;4.80;99.90
14682;DHT22;7429;52.498;13.480;2023-02-01T11:29:36;4.80;99.90
14682;DHT22;7429;52.498;13.480;2023-02-01T11:32:45;4.90;99.90
14682;DHT22;7429;52.498;13.480;2023-02-01T11:35:49;5.00;99.90
14682;DHT22;7429;52.498;13.480;2023-02-01T11:38:54;5.10;99.90
14682;DHT22;7429;52.498;13.480;2023-02-01T11:42:14;5.20;99.90
14682;DHT22;7429;52.498;13.480;2023-02-01T11:45:25;5.40;99.90
14682;DHT22;7429;52.498;13.480;2023-02-01T11:48:33;5.50;99.90
14682;DHT22;7429;52.498;13.480;2023-02-01T11:51:44;5.50;99.90
14682;DHT22;7429;52.498;13.480;2023-02-01T11:55:06;5.60;99.90
14682;DHT22;7429;52.498;13.480;2023-02-01T11:58:46;5.60;99.90
14682;DHT22;7429;52.498;13.480;2023-02-01T12:02:15;5.80;99.90
14682;DHT22;7429;52.498;13.480;2023-02-01T12:05:48;5.90;99.90
14682;DHT22;7429;52.498;13.480;2023-02-01T12:09:11;6.00;99.90
14682;DHT22;7429;52.498;13.480;2023-02-01T12:12:24;6.10;99.90
14682;DHT22;7429;52.498;13.480;2023-02-01T12:15:40;6.20;99.90
14682;DHT22;7429;52.498;13.480;2023-02-01T12:19:28;6.30;99.90
14682;DHT22;7429;52.498;13.480;2023-02-01T12:22:45;6.40;99.90
14682;DHT22;7429;52.498;13.480;2023-02-01T12:26:17;6.40;99.90
14682;DHT22;7429;52.498;13.480;2023-02-01T12:29:53;6.40;99.90
14682;DHT22;7429;52.498;13.480;2023-02-01T12:33:07;6.40;99.90
14682;DHT22;7429;52.498;13.480;2023-02-01T12:36:25;6.40;99.90
14682;DHT22;7429;52.498;13.480;2023-02-01T12:39:38;6.30;99.90
14682;DHT22;7429;52.498;13.480;2023-02-01T12:42:45;6.30;99.90
14682;DHT22;7429;52.498;13.480;2023-02-01T12:45:58;6.30;99.90
14682;DHT22;7429;52.498;13.480;2023-02-01T12:49:11;6.30;99.90
14682;DHT22;7429;52.498;13.480;2023-02-01T12:52:27;6.30;99.90
14682;DHT22;7429;52.498;13.480;2023-02-01T12:55:41;6.20;99.90
14682;DHT22;7429;52.498;13.480;2023-02-01T12:58:50;6.30;99.90
14682;DHT22;7429;52.498;13.480;2023-02-01T13:02:06;6.30;99.90
14682;DHT22;7429;52.498;13.480;2023-02-01T13:05:19;6.30;99.90
14682;DHT22;7429;52.498;13.480;2023-02-01T13:08:29;6.40;99.90
14682;DHT22;7429;52.498;13.480;2023-02-01T13:11:43;6.50;99.90
14682;DHT22;7429;52.498;13.480;2023-02-01T13:14:53;6.50;99.90
14682;DHT22;7429;52.498;13.480;2023-02-01T13:18:03;6.50;99.90
14682;DHT22;7429;52.498;13.480;2023-02-01T13:21:12;6.50;99.90
14682;DHT22;7429;52.498;13.480;2023-02-01T13:24:27;6.60;99.90
14682;DHT22;7429;52.498;13.480;2023-02-01T13:27:37;6.60;99.90
14682;DHT22;7429;52.498;13.480;2023-02-01T13:31:00;6.50;99.90
14682;DHT22;7429;52.498;13.480;2023-02-01T13:34:41;6.50;99.90
14682;DHT22;7429;52.498;13.480;2023-02-01T13:38:05;6.50;99.90
14682;DHT22;7429;52.498;13.480;2023-02-01T13:41:24;6.50;99.90
14682;DHT22;7429;52.498;13.480;2023-02-01T13:44:39;6.50;99.90
14682;DHT22;7429;52.498;13.480;2023-02-01T13:47:46;6.50;99.90
14682;DHT22;7429;52.498;13.480;2023-02-01T13:50:56;6.50;99.90
14682;DHT22;7429;52.498;13.480;2023-02-01T13:54:00;6.50;99.90
14682;DHT22;7429;52.498;13.480;2023-02-01T13:57:15;6.50;99.90
14682;DHT22;7429;52.498;13.480;2023-02-01T14:00:39;6.60;99.90
14682;DHT22;7429;52.498;13.480;2023-02-01T14:03:44;6.60;99.90
14682;DHT22;7429;52.498;13.480;2023-02-01T14:06:52;6.60;99.90
14682;DHT22;7429;52.498;13.480;2023-02-01T14:17:46;6.60;99.90
14682;DHT22;7429;52.498;13.480;2023-02-01T14:20:50;6.50;99.90
14682;DHT22;7429;52.498;13.480;2023-02-01T14:23:58;6.50;99.90
14682;DHT22;7429;52.498;13.480;2023-02-01T14:27:18;6.30;99.90
14682;DHT22;7429;52.498;13.480;2023-02-01T14:30:24;6.20;99.90
14682;DHT22;7429;52.498;13.480;2023-02-01T14:33:28;6.20;99.90
14682;DHT22;7429;52.498;13.480;2023-02-01T14:36:44;6.10;99.90
14682;DHT22;7429;52.498;13.480;2023-02-01T14:39:55;6.10;99.90
14682;DHT22;7429;52.498;13.480;2023-02-01T14:42:59;6.10;99.90
14682;DHT22;7429;52.498;13.480;2023-02-01T14:46:04;6.10;99.90
14682;DHT22;7429;52.498;13.480;2023-02-01T14:49:10;6.10;99.90
14682;DHT22;7429;52.498;13.480;2023-02-01T14:52:19;6.10;99.90
14682;DHT22;7429;52.498;13.480;2023-02-01T14:55:27;6.20;99.90
14682;DHT22;7429;52.498;13.480;2023-02-01T14:58:38;6.20;99.90
14682;DHT22;7429;52.498;13.480;2023-02-01T15:01:50;6.20;99.90
14682;DHT22;7429;52.498;13.480;2023-02-01T15:04:56;6.30;99.90
14682;DHT22;7429;52.498;13.480;2023-02-01T15:08:07;6.30;99.90
14682;DHT22;7429;52.498;13.480;2023-02-01T15:11:16;6.30;99.90
14682;DHT22;7429;52.498;13.480;2023-02-01T15:14:19;6.30;99.90
14682;DHT22;7429;52.498;13.480;2023-02-01T15:17:26;6.30;99.90
14682;DHT22;7429;52.498;13.480;2023-02-01T15:20:35;6.20;99.90
14682;DHT22;7429;52.498;13.480;2023-02-01T15:23:48;5.90;99.90
14682;DHT22;7429;52.498;13.480;2023-02-01T15:26:54;5.70;99.90
14682;DHT22;7429;52.498;13.480;2023-02-01T15:30:05;5.60;99.90
14682;DHT22;7429;52.498;13.480;2023-02-01T15:33:16;5.40;99.90
14682;DHT22;7429;52.498;13.480;2023-02-01T15:36:27;5.30;99.90
14682;DHT22;7429;52.498;13.480;2023-02-01T15:39:32;5.20;99.90
14682;DHT22;7429;52.498;13.480;2023-02-01T15:42:40;5.10;99.90
14682;DHT22;7429;52.498;13.480;2023-02-01T15:45:56;4.90;99.90
14682;DHT22;7429;52.498;13.480;2023-02-01T15:49:01;4.70;99.90
14682;DHT22;7429;52.498;13.480;2023-02-01T15:52:19;4.60;99.90
14682;DHT22;7429;52.498;13.480;2023-02-01T15:55:33;4.40;99.90
14682;DHT22;7429;52.498;13.480;2023-02-01T15:58:45;4.30;99.90
14682;DHT22;7429;52.498;13.480;2023-02-01T16:01:50;4.20;99.90
14682;DHT22;7429;52.498;13.480;2023-02-01T16:04:56;4.10;99.90
14682;DHT22;7429;52.498;13.480;2023-02-01T16:08:03;4.00;99.90
14682;DHT22;7429;52.498;13.480;2023-02-01T16:11:25;3.90;99.90
14682;DHT22;7429;52.498;13.480;2023-02-01T16:14:34;3.80;99.90
14682;DHT22;7429;52.498;13.480;2023-02-01T16:17:37;3.70;99.90
14682;DHT22;7429;52.498;13.480;2023-02-01T16:20:42;3.50;99.90
14682;DHT22;7429;52.498;13.480;2023-02-01T16:23:48;3.40;99.90
14682;DHT22;7429;52.498;13.480;2023-02-01T16:26:53;3.20;99.90
14682;DHT22;7429;52.498;13.480;2023-02-01T16:29:56;3.10;99.90
14682;DHT22;7429;52.498;13.480;2023-02-01T16:33:03;3.10;99.90
14682;DHT22;7429;52.498;13.480;2023-02-01T16:36:09;3.10;99.90
14682;DHT22;7429;52.498;13.480;2023-02-01T16:39:13;3.10;99.90
14682;DHT22;7429;52.498;13.480;2023-02-01T16:42:16;3.10;99.90
14682;DHT22;7429;52.498;13.480;2023-02-01T16:45:20;3.10;99.90
14682;DHT22;7429;52.498;13.480;2023-02-01T16:48:25;3.20;99.90
14682;DHT22;7429;52.498;13.480;2023-02-01T16:51:32;3.20;99.90
14682;DHT22;7429;52.498;13.480;2023-02-01T16:54:36;3.20;99.90
14682;DHT22;7429;52.498;13.480;2023-02-01T16:57:39;3.30;99.90
14682;DHT22;7429;52.498;13.480;2023-02-01T17:00:44;3.30;99.90
14682;DHT22;7429;52.498;13.480;2023-02-01T17:03:48;3.30;99.90
14682;DHT22;7429;52.498;13.480;2023-02-01T17:06:53;3.40;99.90
14682;DHT22;7429;52.498;13.480;2023-02-01T17:09:59;3.40;99.90
14682;DHT22;7429;52.498;13.480;2023-02-01T17:13:04;3.50;99.90
14682;DHT22;7429;52.498;13.480;2023-02-01T17:16:19;3.40;99.90
14682;DHT22;7429;52.498;13.480;2023-02-01T17:19:24;3.50;99.90
14682;DHT22;7429;52.498;13.480;2023-02-01T17:22:29;3.50;99.90
14682;DHT22;7429;52.498;13.480;2023-02-01T17:25:32;3.50;99.90
14682;DHT22;7429;52.498;13.480;2023-02-01T17:28:36;3.50;99.90
14682;DHT22;7429;52.498;13.480;2023-02-01T17:31:41;3.60;99.90
14682;DHT22;7429;52.498;13.480;2023-02-01T17:34:46;3.60;99.90
14682;DHT22;7429;52.498;13.480;2023-02-01T17:37:51;3.70;99.90
14682;DHT22;7429;52.498;13.480;2023-02-01T17:40:54;3.70;99.90
14682;DHT22;7429;52.498;13.480;2023-02-01T17:43:58;3.70;99.90
14682;DHT22;7429;52.498;13.480;2023-02-01T17:47:01;3.80;99.90
14682;DHT22;7429;52.498;13.480;2023-02-01T17:50:05;3.90;99.90
14682;DHT22;7429;52.498;13.480;2023-02-01T17:53:10;3.90;99.90
14682;DHT22;7429;52.498;13.480;2023-02-01T17:56:15;3.90;99.90
14682;DHT22;7429;52.498;13.480;2023-02-01T17:59:19;4.00;99.90
14682;DHT22;7429;52.498;13.480;2023-02-01T18:02:24;4.00;99.90
14682;DHT22;7429;52.498;13.480;2023-02-01T18:05:37;4.00;99.90
14682;DHT22;7429;52.498;13.480;2023-02-01T18:08:44;4.10;99.90
14682;DHT22;7429;52.498;13.480;2023-02-01T18:11:47;4.00;99.90
14682;DHT22;7429;52.498;13.480;2023-02-01T18:14:51;4.10;99.90
14682;DHT22;7429;52.498;13.480;2023-02-01T18:17:54;4.20;99.90
14682;DHT22;7429;52.498;13.480;2023-02-01T18:20:57;4.20;99.90
14682;DHT22;7429;52.498;13.480;2023-02-01T18:24:03;4.20;99.90
14682;DHT22;7429;52.498;13.480;2023-02-01T18:27:06;4.20;99.90
14682;DHT22;7429;52.498;13.480;2023-02-01T18:30:11;4.20;99.90
14682;DHT22;7429;52.498;13.480;2023-02-01T18:33:20;4.30;99.90
14682;DHT22;7429;52.498;13.480;2023-02-01T18:36:23;4.30;99.90
14682;DHT22;7429;52.498;13.480;2023-02-01T18:39:28;4.40;99.90
14682;DHT22;7429;52.498;13.480;2023-02-01T18:42:31;4.30;99.90
14682;DHT22;7429;52.498;13.480;2023-02-01T18:45:39;4.40;99.90
14682;DHT22;7429;52.498;13.480;2023-02-01T18:48:43;4.40;99.90
14682;DHT22;7429;52.498;13.480;2023-02-01T18:51:49;4.40;99.90
14682;DHT22;7429;52.498;13.480;2023-02-01T18:54:55;4.40;99.90
14682;DHT22;7429;52.498;13.480;2023-02-01T18:58:04;4.50;99.90
14682;DHT22;7429;52.498;13.480;2023-02-01T19:01:12;4.50;99.90
14682;DHT22;7429;52.498;13.480;2023-02-01T19:04:17;4.50;99.90
14682;DHT22;7429;52.498;13.480;2023-02-01T19:07:26;4.50;99.90
14682;DHT22;7429;52.498;13.480;2023-02-01T19:10:30;4.50;99.90
14682;DHT22;7429;52.498;13.480;2023-02-01T19:13:34;4.60;99.90
14682;DHT22;7429;52.498;13.480;2023-02-01T19:16:38;4.50;99.90
14682;DHT22;7429;52.498;13.480;2023-02-01T19:19:41;4.60;99.90
14682;DHT22;7429;52.498;13.480;2023-02-01T19:22:45;4.60;99.90
14682;DHT22;7429;52.498;13.480;2023-02-01T19:25:50;4.60;99.90
14682;DHT22;7429;52.498;13.480;2023-02-01T19:28:56;4.60;99.90
14682;DHT22;7429;52.498;13.480;2023-02-01T19:32:00;4.70;99.90
14682;DHT22;7429;52.498;13.480;2023-02-01T19:35:03;4.60;99.90
14682;DHT22;7429;52.498;13.480;2023-02-01T19:38:06;4.60;99.90
14682;DHT22;7429;52.498;13.480;2023-02-01T19:41:11;4.70;99.90
14682;DHT22;7429;52.498;13.480;2023-02-01T19:44:15;4.60;99.90
14682;DHT22;7429;52.498;13.480;2023-02-01T19:47:18;4.60;99.90
14682;DHT22;7429;52.498;13.480;2023-02-01T19:50:22;4.70;99.90
14682;DHT22;7429;52.498;13.480;2023-02-01T19:53:26;4.70;99.90
14682;DHT22;7429;52.498;13.480;2023-02-01T19:56:32;4.70;99.90
14682;DHT22;7429;52.498;13.480;2023-02-01T19:59:35;4.70;99.90
14682;DHT22;7429;52.498;13.480;2023-02-01T20:02:41;4.70;99.90
14682;DHT22;7429;52.498;13.480;2023-02-01T20:05:45;4.80;99.90
14682;DHT22;7429;52.498;13.480;2023-02-01T20:08:53;4.70;99.90
14682;DHT22;7429;52.498;13.480;2023-02-01T20:11:58;4.80;99.90
14682;DHT22;7429;52.498;13.480;2023-02-01T20:15:05;4.80;99.90
14682;DHT22;7429;52.498;13.480;2023-02-01T20:18:10;4.80;99.90
14682;DHT22;7429;52.498;13.480;2023-02-01T20:21:13;4.90;99.90